Thursday, December 18, 2014
22:23 UTC
  |  Log In   |  Register Free
Airport Search:

Powell Municipal Airport
(KPOY)

Powell Municipal Airport Diagram
No Airport Diagram Available

FAA data valid effective November 13, 2014 - January 08, 2015 (unless otherwise noted).

 
 
 
 
 
 
 
 
 
 
 
 
 
 

Current Aviation Weather for Powell Municipal Airport (KPOY)

The most recent METAR observation for KPOY was updated at: 2112
METAR Summary (Translated METAR)
KPOY
182055Z AUTO 13009KT 10SM CLR M03/M07 A2997 RMK AO2
KU68
182055Z AUTO 00000KT 10SM CLR M03/M06 A3003 RMK AO2 PWINO
(15 nm NE from KPOY)
KCOD
182055Z AUTO 29007KT 10SM CLR 03/M06 A2997 RMK AO1 60001 57014
(23.1 nm SW from KPOY)
TAF Summary (Translated TAF)
KCOD
181720Z 1818/1918 22007KT P6SM FEW250 FM182300 21005KT P6SM BKN090 FM190600 23011KT P6SM SKC AMD LTD TO CLD VIS AND WIND
  Airport Weather Conditions for KPOY

 Current Weather at POY
28° F
Fair
Southeast winds at 12.7 mph
POY NOAA Radar

Pressure: 29.97 in
Humidity: 64%
Wind: Southeast at 12.7 MPH (11 KT)
Dew Point: 17.6°F
Visibility: 10.00 mi


Airport Weather Forecast for KPOY

Translated METAR and TAF for KCOD
Translated METAR for KCOD (2224 UTC 18 December 2014)
found at http://aviationweather.gov/adds/metars/
 
METAR text: KCOD 182215Z AUTO 02003KT 10SM CLR M01/M07 A2998 RMK AO1
Conditions at: KCOD (CODY , WY, US) observed 2215 UTC 18 December 2014
Temperature: -1.0°C (30°F)
Dewpoint: -7.0°C (19°F) [RH = 64%]
Pressure (altimeter): 29.98 inches Hg (1015.3 mb)
Winds: from the NNE (20 degrees) at 3 MPH (3 knots; 1.6 m/s)
Visibility: 10 or more miles (16+ km)
Ceiling: at least 12,000 feet AGL
Clouds: sky clear below 12,000 feet AGL
Weather: automated observation with no human augmentation;
there may or may not be significant weather present at this time
Translated TAF for KCOD
Forecast for: KCOD (CODY , WY, US)
TAF Text: KCOD 181720Z 1818/1918 22007KT P6SM FEW250
Forecast period: 1800 to 2300 UTC 18 December 2014
Forecast type: FROM: standard forecast or significant change
Winds: from the SW (220 degrees) at 8 MPH (7 knots; 3.6 m/s)
Visibility: 6 or more miles (10+ km)
Clouds: few clouds at 25000 feet AGL
Weather: no significant weather forecast for this period
TAF Text: FM182300 21005KT P6SM BKN090
Forecast period: 2300 UTC 18 December 2014 to 0600 UTC 19 December 2014
Forecast type: FROM: standard forecast or significant change
Winds: from the SSW (210 degrees) at 6 MPH (5 knots; 2.6 m/s)
Visibility: 6 or more miles (10+ km)
Ceiling: 9000 feet AGL
Clouds: broken clouds at 9000 feet AGL
Weather: no significant weather forecast for this period
TAF Text: FM190600 23011KT P6SM SKC AMD LTD TO CLD VIS AND WIND
Forecast period: 0600 to 1800 UTC 19 December 2014
Forecast type: FROM: standard forecast or significant change
Winds: from the SW (230 degrees) at 13 MPH (11 knots; 5.7 m/s)
Visibility: 6 or more miles (10+ km)
Clouds: clear skies
Weather: no significant weather forecast for this period

Find All Airport Services Find A Hotel Find A Rental Car Find A Golf Course Find A Restaurant $100 Hamburger



FBO's on the Field
FBO Company Facility Photos Services Transportation Aviation Fuel Prices: Prices include tax
Catering Weather Repair Courtesy Rental Type 100LL JetA JetA+ MOGAS 8087
 
City of Powell

This FBO has not yet been rated
FS:Independent
Last Updated: Nov-13
Login to update fuel prices
SS:
Contact City of PowellMore FBO Information
 
Add another FBO Facility Photos Catering Weather Repair Courtesy Rental Type 100LL JetA JetA+ MOGAS 8087
Services Transportation Aviation Fuel Prices: Prices include tax


model-print
model-print
model-print
model-print